createdAt,value
2023-04-12T00:00:12.094Z,15.67
2023-04-12T00:02:42.698Z,16.37
2023-04-12T00:05:14.184Z,15.40
2023-04-12T00:07:49.110Z,16.07
2023-04-12T00:10:17.857Z,17.73
2023-04-12T00:12:47.089Z,15.47
2023-04-12T00:15:15.909Z,15.73
2023-04-12T00:17:46.593Z,16.30
2023-04-12T00:20:16.690Z,16.13
2023-04-12T00:22:46.922Z,17.30
2023-04-12T00:25:15.633Z,16.33
2023-04-12T00:27:44.370Z,16.23
2023-04-12T00:30:13.866Z,16.70
2023-04-12T00:32:44.700Z,16.60
2023-04-12T00:35:13.711Z,16.17
2023-04-12T00:37:42.476Z,15.40
2023-04-12T00:40:14.191Z,14.50
2023-04-12T00:42:43.011Z,13.97
2023-04-12T00:45:12.688Z,13.90
2023-04-12T00:47:43.641Z,13.60
2023-04-12T00:50:13.447Z,14.10
2023-04-12T00:52:42.282Z,13.07
2023-04-12T00:55:12.661Z,12.17
2023-04-12T00:57:42.166Z,11.57
2023-04-12T01:00:13.776Z,11.90
2023-04-12T01:02:47.505Z,11.97
2023-04-12T01:05:22.129Z,10.97
2023-04-12T01:08:06.337Z,10.53
2023-04-12T01:10:43.449Z,11.43
2023-04-12T01:13:23.109Z,10.63
2023-04-12T01:15:57.096Z,12.00
2023-04-12T01:18:32.008Z,10.93
2023-04-12T01:21:08.051Z,10.83
2023-04-12T01:23:53.341Z,10.17
2023-04-12T01:26:34.638Z,10.00
2023-04-12T01:29:12.467Z,10.17
2023-04-12T01:31:43.140Z,10.40
2023-04-12T01:34:13.646Z,10.33
2023-04-12T01:36:46.306Z,10.40
2023-04-12T01:39:15.480Z,10.67
2023-04-12T01:41:45.779Z,10.53
2023-04-12T01:44:16.922Z,11.33
2023-04-12T01:46:47.675Z,11.40
2023-04-12T01:49:17.640Z,12.20
2023-04-12T01:51:53.826Z,10.83
2023-04-12T01:54:28.941Z,11.80
2023-04-12T01:57:02.124Z,11.40
2023-04-12T01:59:39.396Z,10.70
2023-04-12T02:02:08.985Z,11.53
2023-04-12T02:04:38.801Z,10.97
2023-04-12T02:07:07.558Z,11.47
2023-04-12T02:09:39.492Z,10.93
2023-04-12T02:12:09.155Z,10.43
2023-04-12T02:14:39.719Z,10.40
2023-04-12T02:17:08.783Z,11.17
2023-04-12T02:19:38.926Z,11.53
2023-04-12T02:22:08.560Z,11.33
2023-04-12T02:24:37.312Z,11.80
2023-04-12T02:27:06.245Z,10.73
2023-04-12T02:29:36.215Z,11.77
2023-04-12T02:32:06.680Z,12.57
2023-04-12T02:34:36.917Z,10.83
2023-04-12T02:37:23.719Z,11.13
2023-04-12T02:39:52.534Z,10.77
2023-04-12T02:42:22.798Z,11.87
2023-04-12T02:44:51.978Z,11.47
2023-04-12T02:47:22.977Z,13.40
2023-04-12T02:49:53.118Z,11.37
2023-04-12T02:52:24.311Z,12.70
2023-04-12T02:55:09.077Z,13.17
2023-04-12T02:57:37.956Z,14.60
2023-04-12T03:00:12.428Z,13.23
2023-04-12T03:02:51.658Z,14.27
2023-04-12T03:05:27.738Z,15.90
2023-04-12T03:07:57.349Z,14.00
2023-04-12T03:10:34.128Z,16.40
2023-04-12T03:13:05.101Z,14.83
2023-04-12T03:15:49.743Z,16.10
2023-04-12T03:18:23.660Z,14.57
2023-04-12T03:20:54.812Z,15.07
2023-04-12T03:23:24.127Z,19.70
2023-04-12T03:26:03.129Z,14.63
2023-04-12T03:28:35.796Z,14.60
2023-04-12T03:31:07.843Z,14.93
2023-04-12T03:33:57.146Z,15.50
2023-04-12T03:36:29.878Z,14.93
2023-04-12T03:39:07.095Z,15.37
2023-04-12T03:41:38.164Z,15.63
2023-04-12T03:44:07.801Z,21.73
2023-04-12T03:46:37.851Z,15.97
2023-04-12T03:49:12.748Z,15.37
2023-04-12T03:51:43.901Z,17.20
2023-04-12T03:54:14.107Z,15.30
2023-04-12T03:56:56.870Z,15.97
2023-04-12T03:59:41.856Z,14.77
2023-04-12T04:02:11.559Z,16.03
2023-04-12T04:04:48.642Z,16.00
2023-04-12T04:07:26.553Z,16.87
2023-04-12T04:09:57.534Z,18.67
2023-04-12T04:12:30.102Z,19.53
2023-04-12T04:14:59.685Z,16.67
2023-04-12T04:17:32.404Z,19.93
2023-04-12T04:20:05.578Z,19.87
2023-04-12T04:22:37.198Z,17.97
2023-04-12T04:25:07.221Z,16.57
2023-04-12T04:27:40.516Z,16.60
2023-04-12T04:30:11.959Z,19.03
2023-04-12T04:32:46.249Z,19.13
2023-04-12T04:35:18.547Z,19.83
2023-04-12T04:38:02.038Z,19.70
2023-04-12T04:40:31.148Z,19.07
2023-04-12T04:43:00.464Z,25.13
2023-04-12T04:45:33.893Z,17.93
2023-04-12T04:48:03.766Z,19.20
2023-04-12T04:50:34.128Z,18.50
2023-04-12T04:53:04.111Z,15.67
2023-04-12T04:55:35.071Z,14.87
2023-04-12T04:58:03.879Z,14.33
2023-04-12T05:00:32.867Z,13.53
2023-04-12T05:03:03.387Z,17.80
2023-04-12T05:05:33.799Z,13.83
2023-04-12T05:08:10.435Z,14.70
2023-04-12T05:10:39.245Z,12.10
2023-04-12T05:13:10.099Z,14.07
2023-04-12T05:15:42.560Z,13.63
2023-04-12T05:18:11.353Z,14.83
2023-04-12T05:20:41.925Z,19.93
2023-04-12T05:23:10.827Z,16.77
2023-04-12T05:25:47.041Z,17.73
2023-04-12T05:28:17.646Z,18.93
2023-04-12T05:30:46.985Z,21.50
2023-04-12T05:33:20.914Z,16.33
2023-04-12T05:35:52.341Z,19.10
2023-04-12T05:38:21.902Z,17.50
2023-04-12T05:40:58.024Z,18.67
2023-04-12T05:43:26.876Z,17.10
2023-04-12T05:45:56.358Z,15.63
2023-04-12T05:48:25.781Z,15.80
2023-04-12T05:50:58.366Z,15.07
2023-04-12T05:53:29.964Z,18.43
2023-04-12T05:56:02.109Z,15.07
2023-04-12T05:58:31.660Z,14.77
2023-04-12T06:01:01.064Z,14.63
2023-04-12T06:03:32.546Z,15.37
2023-04-12T06:06:11.980Z,16.13
2023-04-12T06:08:42.490Z,16.23
2023-04-12T06:11:12.268Z,14.67
2023-04-12T06:13:43.137Z,17.03
2023-04-12T06:16:12.171Z,16.87
2023-04-12T06:18:41.366Z,15.20
2023-04-12T06:21:11.596Z,20.07
2023-04-12T06:23:41.992Z,20.97
2023-04-12T06:26:11.470Z,17.27
2023-04-12T06:28:40.949Z,19.47
2023-04-12T06:31:09.794Z,18.60
2023-04-12T06:33:40.876Z,14.87
2023-04-12T06:36:15.817Z,13.77
2023-04-12T06:38:44.518Z,14.77
2023-04-12T06:41:13.453Z,17.00
2023-04-12T06:43:42.211Z,14.03
2023-04-12T06:46:10.945Z,18.50
2023-04-12T06:48:40.854Z,16.83
2023-04-12T06:51:10.153Z,16.27
2023-04-12T06:53:40.478Z,16.47
2023-04-12T06:56:09.985Z,15.20
2023-04-12T06:58:38.730Z,13.30
2023-04-12T07:01:07.954Z,13.30
2023-04-12T07:03:36.887Z,12.70
2023-04-12T07:06:17.763Z,12.37
2023-04-12T07:08:54.582Z,12.30
2023-04-12T07:11:24.039Z,13.60
2023-04-12T07:13:52.881Z,15.93
2023-04-12T07:16:21.645Z,12.57
2023-04-12T07:18:50.616Z,15.27
2023-04-12T07:21:19.355Z,17.70
2023-04-12T07:23:51.334Z,12.07
2023-04-12T07:26:22.391Z,16.93
2023-04-12T07:28:51.174Z,12.00
2023-04-12T07:31:19.954Z,12.20
2023-04-12T07:33:48.779Z,15.27
2023-04-12T07:36:21.420Z,12.13
2023-04-12T07:38:55.434Z,11.40
2023-04-12T07:41:26.169Z,13.60
2023-04-12T07:43:55.004Z,12.37
2023-04-12T07:46:23.822Z,12.70
2023-04-12T07:48:53.490Z,13.80
2023-04-12T07:51:22.232Z,15.63
2023-04-12T07:53:51.872Z,13.57
2023-04-12T07:56:20.597Z,17.13
2023-04-12T07:58:50.857Z,12.40
2023-04-12T08:01:19.588Z,14.07
2023-04-12T08:03:49.033Z,12.03
2023-04-12T08:06:18.596Z,14.20
2023-04-12T08:08:47.438Z,10.50
2023-04-12T08:11:16.299Z,16.00
2023-04-12T08:13:44.998Z,14.27
2023-04-12T08:16:15.152Z,10.20
2023-04-12T08:18:43.989Z,9.83
2023-04-12T08:21:12.836Z,10.50
2023-04-12T08:23:41.566Z,16.37
2023-04-12T08:26:10.770Z,10.43
2023-04-12T08:28:39.993Z,9.73
2023-04-12T08:31:09.354Z,9.53
2023-04-12T08:33:41.017Z,11.43
2023-04-12T08:36:10.772Z,9.50
2023-04-12T08:38:45.762Z,11.83
2023-04-12T08:41:15.425Z,11.97
2023-04-12T08:43:47.599Z,12.03
2023-04-12T08:46:17.740Z,12.20
2023-04-12T08:48:49.348Z,15.30
2023-04-12T08:51:19.478Z,12.60
2023-04-12T08:53:48.550Z,11.00
2023-04-12T08:56:18.288Z,11.83
2023-04-12T08:58:49.318Z,12.10
2023-04-12T09:01:19.223Z,10.00
2023-04-12T09:03:49.908Z,9.23
2023-04-12T09:06:18.815Z,9.23
2023-04-12T09:08:54.947Z,9.67
2023-04-12T09:11:25.923Z,9.83
2023-04-12T09:13:56.534Z,7.97
2023-04-12T09:16:38.667Z,8.23
2023-04-12T09:19:09.612Z,8.70
2023-04-12T09:21:39.007Z,7.53
2023-04-12T09:24:14.229Z,7.40
2023-04-12T09:26:43.697Z,7.50
2023-04-12T09:29:26.311Z,7.93
2023-04-12T09:32:01.891Z,7.23
2023-04-12T09:34:32.641Z,6.50
2023-04-12T09:37:01.487Z,6.83
2023-04-12T09:39:34.130Z,7.50
2023-04-12T09:42:14.855Z,7.97
2023-04-12T09:44:54.980Z,7.47
2023-04-12T09:47:25.171Z,7.00
2023-04-12T09:49:55.913Z,7.57
2023-04-12T09:52:24.667Z,9.60
2023-04-12T09:54:54.825Z,9.00
2023-04-12T09:57:26.765Z,7.93
2023-04-12T10:00:00.379Z,9.03
2023-04-12T10:02:30.337Z,8.80
2023-04-12T10:05:01.034Z,10.70
2023-04-12T10:07:30.029Z,8.60
2023-04-12T10:10:01.200Z,9.23
2023-04-12T10:12:30.343Z,8.32
2023-04-12T10:15:00.399Z,8.85
2023-04-12T10:17:29.266Z,9.60
2023-04-12T10:20:00.046Z,8.55
2023-04-12T10:22:28.883Z,9.50
2023-04-12T10:24:58.209Z,7.57
2023-04-12T10:27:28.994Z,8.40
2023-04-12T10:30:20.940Z,10.02
2023-04-12T10:32:51.297Z,8.73
2023-04-12T10:35:21.873Z,8.07
2023-04-12T10:38:01.561Z,7.73
2023-04-12T10:40:31.810Z,9.20
2023-04-12T10:43:29.101Z,8.77
2023-04-12T10:45:59.147Z,10.60
2023-04-12T10:48:32.639Z,8.50
2023-04-12T10:51:23.546Z,9.60
2023-04-12T10:53:52.997Z,14.82
2023-04-12T10:56:43.415Z,9.77
2023-04-12T10:59:18.075Z,11.90
2023-04-12T11:02:13.105Z,9.20
2023-04-12T11:05:05.507Z,8.73
2023-04-12T11:07:55.605Z,8.40
2023-04-12T11:10:43.549Z,8.77
2023-04-12T11:13:18.412Z,10.57
2023-04-12T11:15:47.628Z,10.00
2023-04-12T11:18:16.648Z,10.13
2023-04-12T11:20:46.693Z,8.87
2023-04-12T11:23:17.159Z,8.50
2023-04-12T11:25:50.927Z,11.03
2023-04-12T11:28:28.885Z,9.67
2023-04-12T11:31:00.043Z,9.80
2023-04-12T11:33:35.857Z,9.73
2023-04-12T11:36:08.786Z,9.43
2023-04-12T11:38:39.231Z,10.18
2023-04-12T11:41:09.708Z,12.40
2023-04-12T11:43:39.072Z,9.05
2023-04-12T11:46:09.260Z,9.77
2023-04-12T11:48:39.045Z,10.15
2023-04-12T11:51:21.218Z,9.63
2023-04-12T11:53:57.206Z,8.60
2023-04-12T11:56:26.631Z,9.25
2023-04-12T11:58:55.383Z,7.57
2023-04-12T12:01:24.883Z,9.15
2023-04-12T12:03:54.060Z,8.48
2023-04-12T12:06:26.524Z,8.98
2023-04-12T12:08:57.634Z,10.38
2023-04-12T12:11:27.355Z,11.10
2023-04-12T12:13:58.544Z,7.72
2023-04-12T12:16:29.127Z,7.18
2023-04-12T12:18:58.759Z,8.70
2023-04-12T12:21:28.659Z,9.00
2023-04-12T12:23:59.569Z,8.55
2023-04-12T12:26:30.646Z,8.02
2023-04-12T12:29:00.940Z,8.52
2023-04-12T12:31:30.023Z,9.07
2023-04-12T12:34:00.346Z,8.55
2023-04-12T12:36:33.623Z,8.55
2023-04-12T12:39:10.812Z,8.45
2023-04-12T12:41:40.834Z,8.57
2023-04-12T12:44:11.352Z,8.82
2023-04-12T12:46:53.347Z,9.05
2023-04-12T12:49:25.905Z,8.63
2023-04-12T12:51:54.742Z,8.23
2023-04-12T12:57:01.520Z,8.75
2023-04-12T12:59:30.284Z,10.20
2023-04-12T13:01:59.189Z,8.65
2023-04-12T13:04:28.294Z,9.18
2023-04-12T13:06:57.108Z,8.18
2023-04-12T13:09:27.331Z,9.32
2023-04-12T13:11:57.297Z,8.13
2023-04-12T13:14:26.305Z,8.82
2023-04-12T13:16:55.080Z,10.73
2023-04-12T13:19:23.851Z,8.93
2023-04-12T13:21:53.359Z,9.55
2023-04-12T13:24:22.165Z,12.05
2023-04-12T13:26:52.519Z,9.15
2023-04-12T13:29:21.211Z,9.38
2023-04-12T13:31:50.010Z,9.90
2023-04-12T13:34:18.977Z,8.63
2023-04-12T13:36:47.697Z,11.30
2023-04-12T13:39:16.428Z,8.60
2023-04-12T13:41:45.407Z,10.45
2023-04-12T13:44:15.599Z,10.45
2023-04-12T13:46:44.387Z,9.27
2023-04-12T13:49:13.284Z,9.95
2023-04-12T13:51:42.063Z,11.27
2023-04-12T13:54:10.867Z,10.00
2023-04-12T13:56:39.598Z,10.32
2023-04-12T13:59:08.328Z,12.90
2023-04-12T14:01:38.662Z,14.60
2023-04-12T14:04:09.055Z,11.15
2023-04-12T14:06:38.891Z,10.80
2023-04-12T14:09:07.615Z,11.35
2023-04-12T14:11:49.237Z,10.38
2023-04-12T14:14:17.977Z,11.20
2023-04-12T14:16:48.265Z,9.52
2023-04-12T14:19:17.206Z,11.40
2023-04-12T14:21:46.018Z,10.13
2023-04-12T14:24:14.895Z,9.65
2023-04-12T14:26:43.892Z,9.73
2023-04-12T14:29:13.680Z,10.35
2023-04-12T14:31:42.517Z,9.57
2023-04-12T14:34:13.634Z,13.50
2023-04-12T14:36:42.353Z,10.25
2023-04-12T14:39:13.243Z,11.43
2023-04-12T14:41:43.189Z,11.88
2023-04-12T14:44:11.914Z,10.52
2023-04-12T14:46:40.872Z,14.25
2023-04-12T14:49:09.660Z,10.90
2023-04-12T14:51:39.873Z,12.13
2023-04-12T14:54:08.712Z,15.77
2023-04-12T14:56:43.352Z,11.45
2023-04-12T14:59:13.986Z,11.10
2023-04-12T15:01:43.523Z,9.85
2023-04-12T15:04:13.257Z,9.50
2023-04-12T15:06:45.904Z,15.05
2023-04-12T15:09:15.836Z,12.48
2023-04-12T15:11:46.918Z,12.38
2023-04-12T15:14:20.116Z,14.88
2023-04-12T15:16:50.462Z,12.65
2023-04-12T15:19:22.829Z,11.45
2023-04-12T15:21:55.465Z,10.18
2023-04-12T15:24:24.825Z,9.00
2023-04-12T15:26:54.482Z,9.13
2023-04-12T15:29:24.477Z,9.27
2023-04-12T15:31:53.509Z,8.68
2023-04-12T15:34:23.714Z,9.77
2023-04-12T15:36:53.940Z,9.35
2023-04-12T15:39:23.015Z,11.82
2023-04-12T15:41:54.800Z,9.10
2023-04-12T15:44:25.714Z,8.38
2023-04-12T15:47:09.880Z,10.00
2023-04-12T15:49:40.552Z,9.85
2023-04-12T15:52:10.804Z,9.27
2023-04-12T15:54:43.602Z,11.07
2023-04-12T15:57:12.752Z,8.40
2023-04-12T15:59:42.150Z,9.13
2023-04-12T16:02:11.150Z,9.63
2023-04-12T16:04:40.757Z,9.55
2023-04-12T16:07:11.777Z,10.25
2023-04-12T16:09:41.011Z,10.00
2023-04-12T16:12:09.762Z,9.77
2023-04-12T16:14:39.519Z,9.25
2023-04-12T16:17:08.727Z,9.93
2023-04-12T16:19:37.711Z,8.85
2023-04-12T16:22:06.570Z,9.50
2023-04-12T16:24:37.586Z,9.55
2023-04-12T16:27:07.275Z,9.30
2023-04-12T16:29:36.092Z,9.88
2023-04-12T16:32:04.983Z,9.10
2023-04-12T16:34:33.845Z,10.65
2023-04-12T16:37:02.852Z,11.70
2023-04-12T16:39:32.360Z,9.63
2023-04-12T16:42:06.456Z,10.33
2023-04-12T16:44:35.257Z,11.90
2023-04-12T16:47:04.166Z,9.80
2023-04-12T16:49:33.454Z,11.32
2023-04-12T16:52:02.781Z,10.52
2023-04-12T16:54:31.758Z,11.35
2023-04-12T16:57:02.070Z,13.60
2023-04-12T16:59:33.534Z,12.30
2023-04-12T17:02:02.322Z,12.80
2023-04-12T17:04:31.760Z,10.73
2023-04-12T17:07:00.521Z,8.83
2023-04-12T17:09:29.356Z,10.10
2023-04-12T17:11:58.076Z,10.38
2023-04-12T17:14:30.114Z,9.50
2023-04-12T17:16:58.916Z,7.72
2023-04-12T17:19:27.612Z,7.72
2023-04-12T17:21:56.352Z,8.85
2023-04-12T17:24:25.550Z,9.47
2023-04-12T17:26:54.649Z,9.03
2023-04-12T17:29:23.546Z,9.17
2023-04-12T17:31:55.026Z,7.90
2023-04-12T17:34:23.934Z,7.90
2023-04-12T17:36:55.328Z,8.27
2023-04-12T17:39:24.117Z,9.17
2023-04-12T17:41:52.815Z,8.47
2023-04-12T17:44:21.561Z,7.70
2023-04-12T17:46:50.303Z,7.53
2023-04-12T17:49:20.537Z,8.17
2023-04-12T17:51:49.295Z,7.40
2023-04-12T17:54:18.336Z,8.63
2023-04-12T17:56:49.637Z,9.77
2023-04-12T17:59:18.456Z,9.30
2023-04-12T18:01:47.618Z,10.50
2023-04-12T18:04:16.733Z,10.10
2023-04-12T18:06:47.068Z,8.47
2023-04-12T18:09:15.988Z,9.60
2023-04-12T18:11:44.678Z,8.83
2023-04-12T18:14:13.809Z,9.20
2023-04-12T18:16:42.617Z,8.23
2023-04-12T18:19:11.671Z,8.50
2023-04-12T18:21:40.386Z,8.67
2023-04-12T18:24:10.905Z,11.43
2023-04-12T18:26:39.668Z,10.90
2023-04-12T18:29:08.427Z,8.13
2023-04-12T18:31:42.357Z,7.90
2023-04-12T18:34:11.202Z,8.07
2023-04-12T18:36:40.016Z,8.60
2023-04-12T18:39:11.250Z,8.73
2023-04-12T18:41:41.087Z,8.90
2023-04-12T18:44:13.322Z,14.70
2023-04-12T18:46:42.350Z,11.07
2023-04-12T18:49:11.921Z,16.57
2023-04-12T18:51:40.672Z,11.90
2023-04-12T18:54:13.962Z,12.13
2023-04-12T18:56:43.519Z,16.17
2023-04-12T18:59:17.749Z,11.93
2023-04-12T19:01:47.401Z,18.60
2023-04-12T19:04:16.709Z,19.80
2023-04-12T19:06:47.454Z,16.13
2023-04-12T19:09:17.811Z,13.93
2023-04-12T19:11:47.356Z,14.23
2023-04-12T19:14:16.292Z,14.50
2023-04-12T19:16:45.339Z,16.67
2023-04-12T19:19:14.755Z,13.20
2023-04-12T19:21:43.928Z,15.63
2023-04-12T19:24:13.424Z,19.20
2023-04-12T19:26:47.777Z,22.57
2023-04-12T19:29:20.889Z,24.13
2023-04-12T19:31:52.303Z,21.00
2023-04-12T19:34:23.304Z,22.87
2023-04-12T19:36:57.196Z,23.07
2023-04-12T19:39:28.860Z,20.93
2023-04-12T19:42:00.006Z,17.77
2023-04-12T19:44:32.785Z,17.20
2023-04-12T19:47:02.576Z,20.53
2023-04-12T19:49:33.565Z,19.53
2023-04-12T19:52:16.316Z,18.07
2023-04-12T19:54:45.604Z,17.67
2023-04-12T19:57:18.140Z,16.67
2023-04-12T19:59:47.136Z,16.80
2023-04-12T20:02:21.204Z,17.73
2023-04-12T20:04:51.532Z,17.40
2023-04-12T20:07:22.207Z,17.83
2023-04-12T20:09:52.916Z,18.13
2023-04-12T20:12:24.428Z,16.97
2023-04-12T20:14:55.376Z,17.37
2023-04-12T20:17:26.840Z,21.93
2023-04-12T20:19:56.970Z,19.57
2023-04-12T20:22:27.683Z,16.83
2023-04-12T20:25:00.242Z,17.97
2023-04-12T20:27:41.274Z,16.57
2023-04-12T20:30:17.830Z,16.40
2023-04-12T20:32:49.528Z,34.67
2023-04-12T20:35:18.994Z,108.87
2023-04-12T20:37:50.504Z,91.13
2023-04-12T20:40:20.719Z,75.10
2023-04-12T20:42:52.326Z,49.47
2023-04-12T20:45:21.921Z,44.00
2023-04-12T20:47:51.429Z,33.07
2023-04-12T20:50:23.222Z,32.07
2023-04-12T20:52:54.905Z,27.90
2023-04-12T20:55:25.332Z,21.63
2023-04-12T20:57:56.295Z,19.27
2023-04-12T21:00:25.717Z,20.93
2023-04-12T21:02:54.949Z,20.80
2023-04-12T21:05:24.344Z,18.50
2023-04-12T21:07:53.147Z,18.90
2023-04-12T21:10:22.415Z,19.43
2023-04-12T21:12:51.941Z,17.00
2023-04-12T21:15:23.117Z,17.23
2023-04-12T21:17:52.493Z,16.97
2023-04-12T21:20:21.638Z,17.43
2023-04-12T21:22:53.647Z,17.67
2023-04-12T21:25:23.073Z,16.23
2023-04-12T21:27:53.262Z,16.07
2023-04-12T21:30:23.570Z,15.30
2023-04-12T21:32:53.712Z,19.60
2023-04-12T21:35:23.233Z,17.17
2023-04-12T21:37:52.580Z,17.73
2023-04-12T21:40:21.342Z,17.87
2023-04-12T21:42:50.158Z,19.03
2023-04-12T21:45:19.679Z,25.00
2023-04-12T21:47:50.420Z,81.60
2023-04-12T21:50:19.220Z,47.70
2023-04-12T21:52:48.058Z,29.07
2023-04-12T21:55:16.920Z,23.77
2023-04-12T21:57:47.075Z,21.37
2023-04-12T22:00:18.484Z,21.00
2023-04-12T22:02:47.500Z,22.97
2023-04-12T22:05:18.152Z,26.73
2023-04-12T22:07:47.855Z,42.20
2023-04-12T22:10:16.507Z,38.57
2023-04-12T22:12:50.696Z,33.90
2023-04-12T22:15:19.727Z,32.80
2023-04-12T22:17:48.602Z,41.10
2023-04-12T22:20:19.028Z,35.67
2023-04-12T22:22:48.621Z,24.97
2023-04-12T22:25:18.665Z,24.13
2023-04-12T22:27:48.190Z,26.80
2023-04-12T22:30:17.087Z,23.77
2023-04-12T22:32:45.885Z,24.67
2023-04-12T22:35:14.933Z,22.53
2023-04-12T22:37:46.026Z,26.20
2023-04-12T22:40:15.003Z,25.67
2023-04-12T22:42:46.975Z,24.33
2023-04-12T22:45:16.394Z,22.03
2023-04-12T22:47:45.441Z,23.30
2023-04-12T22:50:14.534Z,25.23
2023-04-12T22:52:44.776Z,27.70
2023-04-12T22:55:16.986Z,23.60
2023-04-12T22:57:47.190Z,23.17
2023-04-12T23:00:18.279Z,24.10
2023-04-12T23:02:48.805Z,23.17
2023-04-12T23:05:17.836Z,23.47
2023-04-12T23:07:49.276Z,31.17
2023-04-12T23:10:18.394Z,24.77
2023-04-12T23:12:49.295Z,23.87
2023-04-12T23:15:18.260Z,24.40
2023-04-12T23:17:47.057Z,23.30
2023-04-12T23:20:16.034Z,24.13
2023-04-12T23:22:57.783Z,21.90
2023-04-12T23:25:39.485Z,23.07
2023-04-12T23:28:13.296Z,20.90
2023-04-12T23:30:44.993Z,20.67
2023-04-12T23:33:13.755Z,19.50
2023-04-12T23:35:43.861Z,18.07
2023-04-12T23:38:16.035Z,18.33
2023-04-12T23:40:46.986Z,16.80
2023-04-12T23:43:15.709Z,16.43
2023-04-12T23:45:44.462Z,16.63
2023-04-12T23:48:13.290Z,18.60
2023-04-12T23:50:42.069Z,24.47
2023-04-12T23:53:11.194Z,24.63
2023-04-12T23:55:39.973Z,24.00
2023-04-12T23:58:10.278Z,28.53
